createdAt,value
2023-06-21T00:00:48.203Z,24.00
2023-06-21T00:03:16.382Z,24.21
2023-06-21T00:05:44.288Z,24.29
2023-06-21T00:08:14.087Z,23.90
2023-06-21T00:10:41.943Z,23.42
2023-06-21T00:13:09.835Z,23.07
2023-06-21T00:15:38.328Z,22.80
2023-06-21T00:18:06.200Z,22.78
2023-06-21T00:20:34.240Z,23.36
2023-06-21T00:23:01.982Z,23.56
2023-06-21T00:25:31.184Z,22.43
2023-06-21T00:27:58.989Z,22.59
2023-06-21T00:30:26.997Z,23.24
2023-06-21T00:32:55.365Z,23.55
2023-06-21T00:35:23.198Z,23.42
2023-06-21T00:37:50.996Z,23.45
2023-06-21T00:40:23.222Z,23.67
2023-06-21T00:42:52.618Z,23.67
2023-06-21T00:45:20.476Z,23.77
2023-06-21T00:47:49.087Z,23.45
2023-06-21T00:50:17.212Z,22.66
2023-06-21T00:52:45.207Z,22.82
2023-06-21T00:55:14.690Z,23.13
2023-06-21T00:57:45.359Z,23.40
2023-06-21T01:00:18.622Z,23.49
2023-06-21T01:02:47.678Z,23.51
2023-06-21T01:05:17.902Z,23.18
2023-06-21T01:08:01.586Z,22.78
2023-06-21T01:10:45.440Z,23.13
2023-06-21T01:13:25.939Z,23.18
2023-06-21T01:16:04.166Z,22.86
2023-06-21T01:18:35.911Z,22.89
2023-06-21T01:21:06.026Z,23.01
2023-06-21T01:24:14.674Z,23.22
2023-06-21T01:27:07.800Z,23.31
2023-06-21T01:29:40.797Z,23.45
2023-06-21T01:32:14.301Z,23.42
2023-06-21T01:34:43.006Z,23.51
2023-06-21T01:37:10.790Z,23.49
2023-06-21T01:39:38.873Z,23.32
2023-06-21T01:42:07.732Z,23.33
2023-06-21T01:44:37.521Z,23.38
2023-06-21T01:47:06.248Z,23.35
2023-06-21T01:49:35.629Z,23.22
2023-06-21T01:52:06.217Z,23.24
2023-06-21T01:54:35.423Z,23.05
2023-06-21T01:57:08.344Z,23.13
2023-06-21T01:59:37.815Z,23.22
2023-06-21T02:02:07.803Z,23.26
2023-06-21T02:04:36.623Z,23.21
2023-06-21T02:07:05.997Z,23.23
2023-06-21T02:09:34.426Z,23.20
2023-06-21T02:12:02.813Z,23.25
2023-06-21T02:14:33.244Z,23.21
2023-06-21T02:17:05.152Z,23.21
2023-06-21T02:19:32.966Z,23.09
2023-06-21T02:22:00.847Z,23.14
2023-06-21T02:24:28.762Z,23.16
2023-06-21T02:26:56.582Z,22.42
2023-06-21T02:29:24.393Z,22.49
2023-06-21T02:31:52.243Z,22.03
2023-06-21T02:34:21.636Z,21.89
2023-06-21T02:36:54.627Z,21.98
2023-06-21T02:39:23.334Z,21.59
2023-06-21T02:41:51.612Z,21.46
2023-06-21T02:44:19.714Z,21.55
2023-06-21T02:46:47.553Z,21.75
2023-06-21T02:49:15.381Z,21.68
2023-06-21T02:51:46.477Z,21.22
2023-06-21T02:54:16.765Z,21.51
2023-06-21T02:56:44.851Z,21.85
2023-06-21T02:59:13.221Z,21.49
2023-06-21T03:01:41.054Z,21.89
2023-06-21T03:04:09.003Z,22.14
2023-06-21T03:06:36.859Z,22.31
2023-06-21T03:09:06.783Z,22.12
2023-06-21T03:11:34.623Z,21.97
2023-06-21T03:14:02.655Z,22.07
2023-06-21T03:16:31.196Z,21.98
2023-06-21T03:18:59.282Z,22.27
2023-06-21T03:21:29.637Z,22.19
2023-06-21T03:23:57.607Z,22.35
2023-06-21T03:26:26.845Z,22.54
2023-06-21T03:28:58.602Z,22.53
2023-06-21T03:31:26.590Z,22.51
2023-06-21T03:33:54.936Z,22.47
2023-06-21T03:36:23.242Z,22.58
2023-06-21T03:38:51.265Z,22.24
2023-06-21T03:41:19.293Z,22.47
2023-06-21T03:43:48.621Z,22.72
2023-06-21T03:46:16.803Z,22.77
2023-06-21T03:48:44.876Z,22.82
2023-06-21T03:51:12.778Z,22.49
2023-06-21T03:53:41.287Z,21.77
2023-06-21T03:56:11.071Z,21.64
2023-06-21T03:58:38.937Z,21.97
2023-06-21T04:01:08.142Z,22.09
2023-06-21T04:03:36.101Z,21.98
2023-06-21T04:06:04.969Z,21.76
2023-06-21T04:08:33.145Z,21.87
2023-06-21T04:11:01.282Z,21.99
2023-06-21T04:13:29.175Z,21.23
2023-06-21T04:15:57.320Z,21.50
2023-06-21T04:18:26.481Z,22.04
2023-06-21T04:20:54.954Z,22.25
2023-06-21T04:23:22.924Z,22.33
2023-06-21T04:25:51.330Z,22.09
2023-06-21T04:28:26.145Z,22.29
2023-06-21T04:30:56.138Z,22.54
2023-06-21T04:33:24.506Z,22.68
2023-06-21T04:35:53.657Z,22.82
2023-06-21T04:38:21.440Z,22.91
2023-06-21T04:40:49.221Z,23.00
2023-06-21T04:43:17.019Z,23.10
2023-06-21T04:45:49.677Z,23.01
2023-06-21T04:48:17.503Z,23.09
2023-06-21T04:50:46.232Z,22.77
2023-06-21T04:53:15.907Z,22.99
2023-06-21T04:55:44.050Z,22.72
2023-06-21T04:58:13.611Z,22.72
2023-06-21T05:00:41.475Z,23.05
2023-06-21T05:03:09.589Z,23.03
2023-06-21T05:05:37.448Z,23.26
2023-06-21T05:08:07.238Z,23.42
2023-06-21T05:10:36.656Z,23.52
2023-06-21T05:13:04.602Z,23.51
2023-06-21T05:15:32.423Z,23.40
2023-06-21T05:18:00.590Z,23.46
2023-06-21T05:20:30.729Z,23.52
2023-06-21T05:23:00.916Z,23.65
2023-06-21T05:25:31.371Z,23.69
2023-06-21T05:28:00.514Z,23.51
2023-06-21T05:30:28.610Z,23.60
2023-06-21T05:32:56.829Z,23.74
2023-06-21T05:35:25.015Z,23.86
2023-06-21T05:37:55.161Z,23.97
2023-06-21T05:40:23.209Z,24.04
2023-06-21T05:42:51.165Z,23.95
2023-06-21T05:45:23.906Z,23.95
2023-06-21T05:47:51.699Z,24.07
2023-06-21T05:50:19.535Z,24.19
2023-06-21T05:52:47.379Z,24.17
2023-06-21T05:55:18.454Z,24.15
2023-06-21T05:57:46.520Z,24.33
2023-06-21T06:00:15.415Z,24.43
2023-06-21T06:02:44.584Z,24.50
2023-06-21T06:05:12.834Z,24.08
2023-06-21T06:07:40.679Z,24.31
2023-06-21T06:10:09.172Z,23.78
2023-06-21T06:12:37.117Z,23.85
2023-06-21T06:15:05.653Z,23.96
2023-06-21T06:17:33.519Z,22.88
2023-06-21T06:20:06.929Z,23.80
2023-06-21T06:22:52.274Z,24.21
2023-06-21T06:25:20.538Z,24.58
2023-06-21T06:27:48.377Z,24.50
2023-06-21T06:30:16.290Z,24.53
2023-06-21T06:32:44.244Z,24.43
2023-06-21T06:35:13.526Z,24.67
2023-06-21T06:37:41.361Z,24.71
2023-06-21T06:40:10.148Z,25.05
2023-06-21T06:42:39.623Z,24.43
2023-06-21T06:45:10.668Z,24.50
2023-06-21T06:47:38.696Z,24.89
2023-06-21T06:50:08.392Z,24.99
2023-06-21T06:52:37.562Z,24.82
2023-06-21T06:55:06.262Z,25.22
2023-06-21T06:57:38.151Z,25.45
2023-06-21T07:00:12.862Z,25.85
2023-06-21T07:02:40.976Z,26.26
2023-06-21T07:05:09.518Z,26.02
2023-06-21T07:07:38.915Z,25.73
2023-06-21T07:10:07.624Z,26.19
2023-06-21T07:12:35.503Z,26.46
2023-06-21T07:15:03.340Z,25.88
2023-06-21T07:17:31.208Z,26.50
2023-06-21T07:19:59.102Z,26.93
2023-06-21T07:22:26.885Z,26.75
2023-06-21T07:24:56.088Z,26.90
2023-06-21T07:27:24.077Z,26.10
2023-06-21T07:29:52.068Z,25.99
2023-06-21T07:32:19.863Z,26.59
2023-06-21T07:34:47.676Z,27.13
2023-06-21T07:37:15.515Z,26.97
2023-06-21T07:39:53.494Z,27.24
2023-06-21T07:42:24.054Z,26.77
2023-06-21T07:44:53.608Z,27.21
2023-06-21T07:47:21.798Z,27.23
2023-06-21T07:49:57.950Z,27.32
2023-06-21T07:52:29.211Z,26.84
2023-06-21T07:54:56.961Z,27.00
2023-06-21T07:57:26.176Z,27.22
2023-06-21T07:59:53.950Z,27.77
2023-06-21T08:02:22.255Z,28.09
2023-06-21T08:04:50.221Z,28.07
2023-06-21T08:07:18.187Z,28.01
2023-06-21T08:09:46.077Z,27.50
2023-06-21T08:12:14.268Z,27.87
2023-06-21T08:14:43.538Z,27.31
2023-06-21T08:17:11.341Z,27.52
2023-06-21T08:19:39.166Z,27.77
2023-06-21T08:22:06.980Z,27.49
2023-06-21T08:24:35.446Z,27.17
2023-06-21T08:27:03.250Z,27.56
2023-06-21T08:29:31.155Z,27.89
2023-06-21T08:32:00.483Z,27.65
2023-06-21T08:34:28.436Z,27.49
2023-06-21T08:36:56.213Z,26.96
2023-06-21T08:39:24.092Z,27.09
2023-06-21T08:41:52.048Z,26.65
2023-06-21T08:44:19.869Z,26.73
2023-06-21T08:46:50.381Z,26.11
2023-06-21T08:49:22.826Z,26.03
2023-06-21T08:51:52.522Z,26.41
2023-06-21T08:54:26.430Z,26.59
2023-06-21T08:56:58.108Z,26.76
2023-06-21T08:59:30.911Z,26.55
2023-06-21T09:02:06.871Z,26.53
2023-06-21T09:04:45.367Z,26.58
2023-06-21T09:07:14.784Z,26.54
2023-06-21T09:09:44.618Z,26.43
2023-06-21T09:12:16.828Z,26.39
2023-06-21T09:14:45.187Z,26.48
2023-06-21T09:17:13.866Z,26.09
2023-06-21T09:19:44.160Z,26.11
2023-06-21T09:22:14.292Z,25.29
2023-06-21T09:24:45.826Z,24.41
2023-06-21T09:27:13.800Z,23.96
2023-06-21T09:29:42.024Z,24.00
2023-06-21T09:32:10.021Z,24.69
2023-06-21T09:34:38.412Z,24.27
2023-06-21T09:37:07.828Z,24.81
2023-06-21T09:39:35.683Z,25.28
2023-06-21T09:42:03.725Z,24.23
2023-06-21T09:44:36.213Z,23.92
2023-06-21T09:47:06.078Z,23.91
2023-06-21T09:49:36.370Z,23.39
2023-06-21T09:52:04.416Z,22.78
2023-06-21T09:54:47.106Z,23.16
2023-06-21T09:57:17.636Z,23.56
2023-06-21T09:59:50.721Z,24.27
2023-06-21T10:02:18.590Z,24.02
2023-06-21T10:04:46.757Z,24.35
2023-06-21T10:07:15.873Z,24.52
2023-06-21T10:09:45.088Z,24.57
2023-06-21T10:12:13.837Z,24.22
2023-06-21T10:14:41.896Z,24.25
2023-06-21T10:17:13.352Z,24.42
2023-06-21T10:19:45.580Z,24.70
2023-06-21T10:22:19.128Z,24.44
2023-06-21T10:24:52.133Z,24.56
2023-06-21T10:27:21.361Z,24.72
2023-06-21T10:29:57.531Z,24.54
2023-06-21T10:32:26.453Z,24.46
2023-06-21T10:34:59.955Z,24.36
2023-06-21T10:37:34.549Z,24.21
2023-06-21T10:40:26.446Z,24.69
2023-06-21T10:42:57.190Z,25.07
2023-06-21T10:45:30.037Z,25.21
2023-06-21T10:47:58.931Z,25.22
2023-06-21T10:50:27.451Z,25.35
2023-06-21T10:52:57.037Z,25.46
2023-06-21T10:55:34.618Z,25.70
2023-06-21T10:58:04.586Z,25.48
2023-06-21T11:00:33.031Z,25.65
2023-06-21T11:03:01.220Z,26.06
2023-06-21T11:05:35.919Z,26.17
2023-06-21T11:08:06.356Z,26.45
2023-06-21T11:10:43.929Z,26.66
2023-06-21T11:13:13.196Z,26.68
2023-06-21T11:15:44.667Z,26.84
2023-06-21T11:18:19.892Z,26.88
2023-06-21T11:20:49.745Z,26.83
2023-06-21T11:23:19.138Z,26.80
2023-06-21T11:25:59.344Z,27.18
2023-06-21T11:28:33.551Z,26.59
2023-06-21T11:31:09.741Z,26.72
2023-06-21T11:33:52.980Z,26.08
2023-06-21T11:36:23.190Z,26.41
2023-06-21T11:38:53.926Z,26.21
2023-06-21T11:42:05.425Z,26.27
2023-06-21T11:44:34.248Z,26.22
2023-06-21T11:47:19.120Z,26.46
2023-06-21T11:49:52.250Z,27.10
2023-06-21T11:52:33.313Z,27.61
2023-06-21T11:55:12.794Z,27.70
2023-06-21T11:57:46.355Z,27.87
2023-06-21T12:00:17.097Z,26.66
2023-06-21T12:02:44.980Z,27.05
2023-06-21T12:05:12.964Z,25.79
2023-06-21T12:07:43.043Z,26.42
2023-06-21T12:10:13.603Z,26.79
2023-06-21T12:12:41.454Z,25.84
2023-06-21T12:15:11.654Z,26.90
2023-06-21T12:17:39.567Z,28.17
2023-06-21T12:20:09.804Z,28.96
2023-06-21T12:22:37.807Z,29.11
2023-06-21T12:25:06.950Z,28.72
2023-06-21T12:27:34.934Z,29.70
2023-06-21T12:30:04.203Z,28.53
2023-06-21T12:32:37.899Z,28.98
2023-06-21T12:35:08.212Z,28.50
2023-06-21T12:37:36.236Z,29.40
2023-06-21T12:40:06.821Z,29.31
2023-06-21T12:42:34.672Z,29.49
2023-06-21T12:45:02.656Z,28.34
2023-06-21T12:47:30.530Z,28.37
2023-06-21T12:50:02.826Z,28.33
2023-06-21T12:52:30.660Z,28.52
2023-06-21T12:54:58.800Z,27.90
2023-06-21T12:57:28.214Z,28.21
2023-06-21T12:59:56.118Z,28.44
2023-06-21T13:02:27.832Z,27.36
2023-06-21T13:04:57.367Z,26.69
2023-06-21T13:07:26.722Z,27.00
2023-06-21T13:09:54.832Z,28.30
2023-06-21T13:12:25.196Z,28.81
2023-06-21T13:14:53.101Z,29.94
2023-06-21T13:17:21.923Z,29.88
2023-06-21T13:19:49.885Z,28.72
2023-06-21T13:22:17.617Z,29.51
2023-06-21T13:24:47.022Z,30.38
2023-06-21T13:27:14.832Z,29.02
2023-06-21T13:29:42.692Z,28.53
2023-06-21T13:32:10.584Z,29.37
2023-06-21T13:34:38.480Z,30.33
2023-06-21T13:37:06.625Z,29.01
2023-06-21T13:39:35.587Z,30.05
2023-06-21T13:42:05.206Z,30.42
2023-06-21T13:44:33.089Z,28.36
2023-06-21T13:47:00.999Z,27.77
2023-06-21T13:49:28.832Z,28.77
2023-06-21T13:51:56.990Z,29.67
2023-06-21T13:54:25.542Z,29.49
2023-06-21T13:56:55.273Z,28.54
2023-06-21T13:59:24.550Z,29.25
2023-06-21T14:01:52.375Z,28.66
2023-06-21T14:04:20.257Z,29.51
2023-06-21T14:06:48.217Z,27.72
2023-06-21T14:09:16.073Z,27.55
2023-06-21T14:11:43.933Z,27.65
2023-06-21T14:14:11.816Z,28.60
2023-06-21T14:16:41.087Z,29.19
2023-06-21T14:19:08.960Z,28.63
2023-06-21T14:21:36.845Z,29.02
2023-06-21T14:24:05.257Z,29.46
2023-06-21T14:26:33.481Z,28.96
2023-06-21T14:29:01.283Z,28.19
2023-06-21T14:31:30.775Z,29.23
2023-06-21T14:34:00.058Z,29.47
2023-06-21T14:36:28.447Z,30.22
2023-06-21T14:38:56.431Z,29.24
2023-06-21T14:41:25.812Z,29.23
2023-06-21T14:43:53.795Z,29.72
2023-06-21T14:46:21.717Z,29.16
2023-06-21T14:48:53.631Z,29.64
2023-06-21T14:51:23.923Z,29.33
2023-06-21T14:53:51.991Z,29.12
2023-06-21T14:56:19.876Z,28.90
2023-06-21T14:58:48.978Z,29.80
2023-06-21T15:01:19.100Z,29.79
2023-06-21T15:03:47.894Z,28.96
2023-06-21T15:06:15.931Z,29.40
2023-06-21T15:08:46.344Z,29.55
2023-06-21T15:11:14.263Z,30.18
2023-06-21T15:13:44.015Z,30.32
2023-06-21T15:16:12.585Z,30.62
2023-06-21T15:18:40.641Z,30.37
2023-06-21T15:21:08.699Z,30.12
2023-06-21T15:23:36.556Z,30.50
2023-06-21T15:26:05.906Z,29.01
2023-06-21T15:28:34.897Z,29.19
2023-06-21T15:31:04.285Z,29.15
2023-06-21T15:33:32.352Z,29.15
2023-06-21T15:36:00.366Z,29.58
2023-06-21T15:38:28.163Z,30.03
2023-06-21T15:40:57.785Z,30.33
2023-06-21T15:43:31.199Z,30.22
2023-06-21T15:45:59.542Z,30.11
2023-06-21T15:48:27.448Z,29.00
2023-06-21T15:50:55.695Z,28.46
2023-06-21T15:53:23.556Z,29.79
2023-06-21T15:55:51.501Z,29.46
2023-06-21T15:58:19.638Z,28.90
2023-06-21T16:00:48.864Z,29.60
2023-06-21T16:03:16.845Z,29.63
2023-06-21T16:05:44.848Z,29.53
2023-06-21T16:08:12.646Z,29.87
2023-06-21T16:10:40.477Z,29.84
2023-06-21T16:13:08.831Z,30.34
2023-06-21T16:15:38.102Z,30.29
2023-06-21T16:18:07.500Z,29.91
2023-06-21T16:20:35.403Z,29.94
2023-06-21T16:23:03.172Z,29.19
2023-06-21T16:25:33.365Z,29.21
2023-06-21T16:28:01.142Z,29.63
2023-06-21T16:30:28.954Z,29.73
2023-06-21T16:32:57.811Z,28.88
2023-06-21T16:35:27.556Z,28.71
2023-06-21T16:37:55.704Z,28.60
2023-06-21T16:40:23.522Z,29.33
2023-06-21T16:42:51.400Z,29.98
2023-06-21T16:45:24.135Z,29.11
2023-06-21T16:47:52.849Z,29.01
2023-06-21T16:50:21.028Z,28.72
2023-06-21T16:52:50.232Z,28.66
2023-06-21T16:55:20.230Z,29.10
2023-06-21T16:57:48.476Z,28.53
2023-06-21T17:00:17.287Z,28.36
2023-06-21T17:02:47.563Z,27.59
2023-06-21T17:05:15.592Z,27.55
2023-06-21T17:07:43.514Z,27.68
2023-06-21T17:10:12.787Z,28.53
2023-06-21T17:12:40.697Z,28.14
2023-06-21T17:15:09.806Z,28.82
2023-06-21T17:17:37.720Z,28.79
2023-06-21T17:20:09.603Z,27.05
2023-06-21T17:22:37.930Z,26.94
2023-06-21T17:25:06.803Z,26.88
2023-06-21T17:27:36.091Z,27.04
2023-06-21T17:30:04.818Z,27.17
2023-06-21T17:32:32.943Z,27.06
2023-06-21T17:35:03.271Z,27.44
2023-06-21T17:37:31.107Z,27.36
2023-06-21T17:39:58.987Z,27.13
2023-06-21T17:42:30.143Z,27.43
2023-06-21T17:45:00.593Z,28.03
2023-06-21T17:47:33.467Z,27.44
2023-06-21T17:50:01.359Z,27.04
2023-06-21T17:52:32.146Z,27.75
2023-06-21T17:55:00.220Z,27.26
2023-06-21T17:57:28.044Z,27.77
2023-06-21T17:59:55.942Z,27.75
2023-06-21T18:02:28.395Z,27.77
2023-06-21T18:04:56.527Z,27.27
2023-06-21T18:07:24.669Z,28.04
2023-06-21T18:09:52.806Z,28.16
2023-06-21T18:12:21.357Z,27.06
2023-06-21T18:14:49.231Z,27.17
2023-06-21T18:17:17.747Z,27.26
2023-06-21T18:19:49.010Z,26.57
2023-06-21T18:22:19.673Z,26.69
2023-06-21T18:24:51.836Z,26.58
2023-06-21T18:27:19.678Z,26.42
2023-06-21T18:32:23.653Z,26.39
2023-06-21T18:34:52.804Z,26.42
2023-06-21T18:37:20.749Z,26.44
2023-06-21T18:39:50.423Z,26.53
2023-06-21T18:42:18.244Z,26.32
2023-06-21T18:44:47.442Z,26.09
2023-06-21T18:47:15.300Z,26.33
2023-06-21T18:49:43.350Z,26.39
2023-06-21T18:52:12.584Z,26.40
2023-06-21T18:54:40.524Z,26.35
2023-06-21T18:57:09.029Z,26.59
2023-06-21T18:59:37.792Z,26.42
2023-06-21T19:02:06.299Z,26.28
2023-06-21T19:04:37.070Z,26.37
2023-06-21T19:07:06.063Z,26.31
2023-06-21T19:09:35.306Z,26.25
2023-06-21T19:12:03.120Z,26.17
2023-06-21T19:14:33.879Z,25.65
2023-06-21T19:17:01.729Z,25.40
2023-06-21T19:19:29.545Z,25.42
2023-06-21T19:21:57.394Z,25.46
2023-06-21T19:24:25.198Z,25.44
2023-06-21T19:26:54.349Z,25.46
2023-06-21T19:29:22.113Z,25.74
2023-06-21T19:31:51.540Z,26.22
2023-06-21T19:34:19.432Z,25.93
2023-06-21T19:36:47.247Z,25.96
2023-06-21T19:39:15.127Z,25.85
2023-06-21T19:41:42.969Z,25.22
2023-06-21T19:44:12.215Z,24.99
2023-06-21T19:46:40.726Z,24.92
2023-06-21T19:49:08.721Z,24.76
2023-06-21T19:51:36.485Z,24.89
2023-06-21T19:54:04.435Z,24.87
2023-06-21T19:56:32.218Z,25.08
2023-06-21T19:59:00.051Z,25.35
2023-06-21T20:01:29.320Z,25.44
2023-06-21T20:03:57.220Z,25.35
2023-06-21T20:06:24.994Z,25.33
2023-06-21T20:08:52.787Z,25.25
2023-06-21T20:11:20.583Z,25.20
2023-06-21T20:13:48.431Z,25.45
2023-06-21T20:16:16.234Z,25.56
2023-06-21T20:18:47.715Z,25.16
2023-06-21T20:21:15.550Z,24.84
2023-06-21T20:23:44.539Z,24.91
2023-06-21T20:26:14.705Z,25.14
2023-06-21T20:28:42.552Z,25.05
2023-06-21T20:31:10.406Z,24.84
2023-06-21T20:33:38.231Z,24.84
2023-06-21T20:36:07.982Z,24.64
2023-06-21T20:38:37.044Z,24.45
2023-06-21T20:41:07.359Z,24.37
2023-06-21T20:43:36.690Z,23.90
2023-06-21T20:46:05.111Z,24.08
2023-06-21T20:48:33.051Z,23.89
2023-06-21T20:51:01.062Z,23.99
2023-06-21T20:53:33.039Z,23.59
2023-06-21T20:56:01.591Z,23.53
2023-06-21T20:58:30.150Z,24.03
2023-06-21T21:00:58.274Z,23.65
2023-06-21T21:03:28.196Z,23.57
2023-06-21T21:05:56.383Z,23.77
2023-06-21T21:08:24.218Z,23.60
2023-06-21T21:10:53.446Z,23.27
2023-06-21T21:13:28.538Z,23.42
2023-06-21T21:15:58.584Z,23.91
2023-06-21T21:18:26.425Z,23.91
2023-06-21T21:20:54.238Z,23.89
2023-06-21T21:23:22.142Z,24.43
2023-06-21T21:25:50.149Z,24.82
2023-06-21T21:28:19.310Z,25.06
2023-06-21T21:30:48.670Z,25.04
2023-06-21T21:33:18.130Z,24.61
2023-06-21T21:35:46.239Z,23.40
2023-06-21T21:38:14.103Z,23.28
2023-06-21T21:40:41.950Z,23.44
2023-06-21T21:43:10.852Z,23.88
2023-06-21T21:45:40.151Z,24.55
2023-06-21T21:48:08.222Z,24.78
2023-06-21T21:50:37.388Z,25.01
2023-06-21T21:53:06.091Z,25.13
2023-06-21T21:55:33.898Z,23.92
2023-06-21T21:58:01.787Z,23.73
2023-06-21T22:00:29.904Z,23.95
2023-06-21T22:02:59.489Z,24.17
2023-06-21T22:05:29.674Z,24.15
2023-06-21T22:10:37.670Z,24.54
2023-06-21T22:13:10.730Z,24.65
2023-06-21T22:15:52.334Z,24.31
2023-06-21T22:18:25.626Z,23.59
2023-06-21T22:20:55.822Z,23.07
2023-06-21T22:23:23.964Z,23.25
2023-06-21T22:25:51.962Z,23.26
2023-06-21T22:28:20.395Z,23.53
2023-06-21T22:30:48.281Z,23.78
2023-06-21T22:33:16.749Z,24.15
2023-06-21T22:35:46.266Z,24.26
2023-06-21T22:38:14.170Z,23.89
2023-06-21T22:40:42.033Z,24.04
2023-06-21T22:43:09.806Z,24.12
2023-06-21T22:45:42.186Z,24.19
2023-06-21T22:48:14.527Z,23.96
2023-06-21T22:50:43.893Z,24.16
2023-06-21T22:53:13.518Z,24.29
2023-06-21T22:55:43.564Z,24.20
2023-06-21T22:58:11.612Z,23.38
2023-06-21T23:00:39.632Z,23.26
2023-06-21T23:03:09.364Z,23.27
2023-06-21T23:05:37.465Z,23.11
2023-06-21T23:08:07.075Z,23.43
2023-06-21T23:10:36.359Z,23.04
2023-06-21T23:13:06.783Z,22.80
2023-06-21T23:15:35.551Z,22.62
2023-06-21T23:18:04.875Z,22.35
2023-06-21T23:20:37.938Z,22.47
2023-06-21T23:23:15.926Z,22.42
2023-06-21T23:25:47.688Z,22.26
2023-06-21T23:28:15.921Z,22.28
2023-06-21T23:30:44.480Z,22.47
2023-06-21T23:33:12.682Z,22.93
2023-06-21T23:35:41.033Z,23.27
2023-06-21T23:38:09.071Z,22.94
2023-06-21T23:40:37.682Z,22.53
2023-06-21T23:43:08.825Z,22.37
2023-06-21T23:45:39.763Z,22.18
2023-06-21T23:48:08.128Z,22.25
2023-06-21T23:50:36.216Z,22.35
2023-06-21T23:53:04.185Z,22.39
2023-06-21T23:55:32.230Z,22.42
2023-06-21T23:58:00.368Z,22.16
